sensor_id;sensor_type;location;lat;lon;timestamp;temperature;humidity
21246;DHT22;10781;50.928;4.440;2023-01-09T00:00:47;7.60;99.90
21246;DHT22;10781;50.928;4.440;2023-01-09T00:03:13;7.70;99.90
21246;DHT22;10781;50.928;4.440;2023-01-09T00:05:39;7.70;99.90
21246;DHT22;10781;50.928;4.440;2023-01-09T00:08:05;7.70;99.90
21246;DHT22;10781;50.928;4.440;2023-01-09T00:10:30;7.70;99.90
21246;DHT22;10781;50.928;4.440;2023-01-09T00:12:56;7.70;99.90
21246;DHT22;10781;50.928;4.440;2023-01-09T00:15:21;7.70;99.90
21246;DHT22;10781;50.928;4.440;2023-01-09T00:17:47;7.70;99.90
21246;DHT22;10781;50.928;4.440;2023-01-09T00:20:14;7.70;99.90
21246;DHT22;10781;50.928;4.440;2023-01-09T00:22:40;7.80;99.90
21246;DHT22;10781;50.928;4.440;2023-01-09T00:25:06;7.70;99.90
21246;DHT22;10781;50.928;4.440;2023-01-09T00:27:33;7.70;99.90
21246;DHT22;10781;50.928;4.440;2023-01-09T00:29:59;7.70;99.90
21246;DHT22;10781;50.928;4.440;2023-01-09T00:32:25;7.70;99.90
21246;DHT22;10781;50.928;4.440;2023-01-09T00:34:51;7.70;99.90
21246;DHT22;10781;50.928;4.440;2023-01-09T00:37:17;7.60;99.90
21246;DHT22;10781;50.928;4.440;2023-01-09T00:39:42;7.60;99.90
21246;DHT22;10781;50.928;4.440;2023-01-09T00:42:11;7.60;99.90
21246;DHT22;10781;50.928;4.440;2023-01-09T00:44:57;7.60;99.90
21246;DHT22;10781;50.928;4.440;2023-01-09T00:49:58;7.50;99.90
21246;DHT22;10781;50.928;4.440;2023-01-09T00:52:25;7.50;99.90
21246;DHT22;10781;50.928;4.440;2023-01-09T00:54:50;7.50;99.90
21246;DHT22;10781;50.928;4.440;2023-01-09T00:57:16;7.50;99.90
21246;DHT22;10781;50.928;4.440;2023-01-09T00:59:42;7.50;99.90
21246;DHT22;10781;50.928;4.440;2023-01-09T01:02:08;7.40;99.90
21246;DHT22;10781;50.928;4.440;2023-01-09T01:04:34;7.50;99.90
21246;DHT22;10781;50.928;4.440;2023-01-09T01:07:18;7.50;99.90
21246;DHT22;10781;50.928;4.440;2023-01-09T01:10:05;7.50;99.90
21246;DHT22;10781;50.928;4.440;2023-01-09T01:12:30;7.50;99.90
21246;DHT22;10781;50.928;4.440;2023-01-09T01:14:56;7.30;99.90
21246;DHT22;10781;50.928;4.440;2023-01-09T01:17:22;7.30;99.90
21246;DHT22;10781;50.928;4.440;2023-01-09T01:19:48;7.30;99.90
21246;DHT22;10781;50.928;4.440;2023-01-09T01:22:13;7.40;99.90
21246;DHT22;10781;50.928;4.440;2023-01-09T01:24:39;7.40;99.90
21246;DHT22;10781;50.928;4.440;2023-01-09T01:27:04;7.50;99.90
21246;DHT22;10781;50.928;4.440;2023-01-09T01:29:30;7.50;99.90
21246;DHT22;10781;50.928;4.440;2023-01-09T01:31:56;7.40;99.90
21246;DHT22;10781;50.928;4.440;2023-01-09T01:34:21;7.30;99.90
21246;DHT22;10781;50.928;4.440;2023-01-09T01:36:47;7.30;99.90
21246;DHT22;10781;50.928;4.440;2023-01-09T01:39:13;7.40;99.90
21246;DHT22;10781;50.928;4.440;2023-01-09T01:41:39;7.30;99.90
21246;DHT22;10781;50.928;4.440;2023-01-09T01:44:53;7.30;99.90
21246;DHT22;10781;50.928;4.440;2023-01-09T01:46:52;7.30;99.90
21246;DHT22;10781;50.928;4.440;2023-01-09T01:49:18;7.30;99.90
21246;DHT22;10781;50.928;4.440;2023-01-09T01:51:49;7.40;99.90
21246;DHT22;10781;50.928;4.440;2023-01-09T01:54:27;7.30;99.90
21246;DHT22;10781;50.928;4.440;2023-01-09T01:56:57;7.40;99.90
21246;DHT22;10781;50.928;4.440;2023-01-09T01:59:32;7.50;99.90
21246;DHT22;10781;50.928;4.440;2023-01-09T02:02:00;7.40;99.90
21246;DHT22;10781;50.928;4.440;2023-01-09T02:04:27;7.40;99.90
21246;DHT22;10781;50.928;4.440;2023-01-09T02:06:55;7.50;99.90
21246;DHT22;10781;50.928;4.440;2023-01-09T02:09:21;7.60;99.90
21246;DHT22;10781;50.928;4.440;2023-01-09T02:11:49;7.50;99.90
21246;DHT22;10781;50.928;4.440;2023-01-09T02:14:19;7.60;99.90
21246;DHT22;10781;50.928;4.440;2023-01-09T02:16:58;7.60;99.90
21246;DHT22;10781;50.928;4.440;2023-01-09T02:31:12;8.00;99.90
21246;DHT22;10781;50.928;4.440;2023-01-09T02:36:27;8.10;99.90
21246;DHT22;10781;50.928;4.440;2023-01-09T02:41:47;7.90;99.90
21246;DHT22;10781;50.928;4.440;2023-01-09T02:44:26;8.00;99.90
21246;DHT22;10781;50.928;4.440;2023-01-09T02:49:55;8.40;99.90
21246;DHT22;10781;50.928;4.440;2023-01-09T03:03:46;8.30;99.90
21246;DHT22;10781;50.928;4.440;2023-01-09T03:09:01;8.50;99.90
21246;DHT22;10781;50.928;4.440;2023-01-09T03:11:31;8.50;99.90
21246;DHT22;10781;50.928;4.440;2023-01-09T03:14:04;8.50;99.90
21246;DHT22;10781;50.928;4.440;2023-01-09T03:16:35;8.40;99.90
21246;DHT22;10781;50.928;4.440;2023-01-09T03:19:03;8.50;99.90
21246;DHT22;10781;50.928;4.440;2023-01-09T03:21:31;8.50;99.90
21246;DHT22;10781;50.928;4.440;2023-01-09T03:23:59;8.50;99.90
21246;DHT22;10781;50.928;4.440;2023-01-09T03:26:25;8.50;99.90
21246;DHT22;10781;50.928;4.440;2023-01-09T03:28:53;8.50;99.90
21246;DHT22;10781;50.928;4.440;2023-01-09T03:31:19;8.30;99.90
21246;DHT22;10781;50.928;4.440;2023-01-09T03:33:45;8.30;99.90
21246;DHT22;10781;50.928;4.440;2023-01-09T03:36:12;8.20;99.90
21246;DHT22;10781;50.928;4.440;2023-01-09T03:38:38;8.30;99.90
21246;DHT22;10781;50.928;4.440;2023-01-09T03:41:04;8.30;99.90
21246;DHT22;10781;50.928;4.440;2023-01-09T03:43:30;8.30;99.90
21246;DHT22;10781;50.928;4.440;2023-01-09T03:45:56;8.10;99.90
21246;DHT22;10781;50.928;4.440;2023-01-09T03:48:22;8.10;99.90
21246;DHT22;10781;50.928;4.440;2023-01-09T03:50:52;8.10;99.90
21246;DHT22;10781;50.928;4.440;2023-01-09T03:53:18;8.20;99.90
21246;DHT22;10781;50.928;4.440;2023-01-09T03:55:45;8.20;99.90
21246;DHT22;10781;50.928;4.440;2023-01-09T03:58:12;8.10;99.90
21246;DHT22;10781;50.928;4.440;2023-01-09T04:00:37;8.10;99.90
21246;DHT22;10781;50.928;4.440;2023-01-09T04:03:05;8.00;99.90
21246;DHT22;10781;50.928;4.440;2023-01-09T04:05:30;8.10;99.90
21246;DHT22;10781;50.928;4.440;2023-01-09T04:07:56;8.00;99.90
21246;DHT22;10781;50.928;4.440;2023-01-09T04:10:22;8.00;99.90
21246;DHT22;10781;50.928;4.440;2023-01-09T04:12:47;8.10;99.90
21246;DHT22;10781;50.928;4.440;2023-01-09T04:15:13;8.20;99.90
21246;DHT22;10781;50.928;4.440;2023-01-09T04:17:39;8.30;99.90
21246;DHT22;10781;50.928;4.440;2023-01-09T04:20:05;8.40;99.90
21246;DHT22;10781;50.928;4.440;2023-01-09T04:22:30;8.40;99.90
21246;DHT22;10781;50.928;4.440;2023-01-09T04:24:56;8.40;99.90
21246;DHT22;10781;50.928;4.440;2023-01-09T04:27:22;8.40;99.90
21246;DHT22;10781;50.928;4.440;2023-01-09T04:29:47;8.30;99.90
21246;DHT22;10781;50.928;4.440;2023-01-09T04:32:13;8.40;99.90
21246;DHT22;10781;50.928;4.440;2023-01-09T04:34:39;8.40;99.90
21246;DHT22;10781;50.928;4.440;2023-01-09T04:37:04;8.30;99.90
21246;DHT22;10781;50.928;4.440;2023-01-09T04:39:30;8.30;99.90
21246;DHT22;10781;50.928;4.440;2023-01-09T04:41:56;8.20;99.90
21246;DHT22;10781;50.928;4.440;2023-01-09T04:44:23;8.30;99.90
21246;DHT22;10781;50.928;4.440;2023-01-09T04:46:53;8.30;99.90
21246;DHT22;10781;50.928;4.440;2023-01-09T04:49:19;8.40;99.90
21246;DHT22;10781;50.928;4.440;2023-01-09T04:51:45;8.30;99.90
21246;DHT22;10781;50.928;4.440;2023-01-09T04:54:11;8.30;99.90
21246;DHT22;10781;50.928;4.440;2023-01-09T04:56:36;8.30;99.90
21246;DHT22;10781;50.928;4.440;2023-01-09T04:59:03;8.40;99.90
21246;DHT22;10781;50.928;4.440;2023-01-09T05:01:29;8.50;99.90
21246;DHT22;10781;50.928;4.440;2023-01-09T05:03:55;8.50;99.90
21246;DHT22;10781;50.928;4.440;2023-01-09T05:06:20;8.60;99.90
21246;DHT22;10781;50.928;4.440;2023-01-09T05:08:46;8.60;99.90
21246;DHT22;10781;50.928;4.440;2023-01-09T05:11:12;8.60;99.90
21246;DHT22;10781;50.928;4.440;2023-01-09T05:13:38;8.60;99.90
21246;DHT22;10781;50.928;4.440;2023-01-09T05:16:03;8.50;99.90
21246;DHT22;10781;50.928;4.440;2023-01-09T05:18:29;8.50;99.90
21246;DHT22;10781;50.928;4.440;2023-01-09T05:20:55;8.40;99.90
21246;DHT22;10781;50.928;4.440;2023-01-09T05:23:20;8.40;99.90
21246;DHT22;10781;50.928;4.440;2023-01-09T05:25:46;8.40;99.90
21246;DHT22;10781;50.928;4.440;2023-01-09T05:28:12;8.30;99.90
21246;DHT22;10781;50.928;4.440;2023-01-09T05:30:38;8.20;99.90
21246;DHT22;10781;50.928;4.440;2023-01-09T05:33:03;8.30;99.90
21246;DHT22;10781;50.928;4.440;2023-01-09T05:35:29;8.30;99.90
21246;DHT22;10781;50.928;4.440;2023-01-09T05:37:55;8.10;99.90
21246;DHT22;10781;50.928;4.440;2023-01-09T05:40:21;8.10;99.90
21246;DHT22;10781;50.928;4.440;2023-01-09T05:42:46;8.10;99.90
21246;DHT22;10781;50.928;4.440;2023-01-09T05:45:12;8.10;99.90
21246;DHT22;10781;50.928;4.440;2023-01-09T05:47:38;8.10;99.90
21246;DHT22;10781;50.928;4.440;2023-01-09T05:50:04;8.00;99.90
21246;DHT22;10781;50.928;4.440;2023-01-09T05:52:29;8.00;99.90
21246;DHT22;10781;50.928;4.440;2023-01-09T05:54:55;8.10;99.90
21246;DHT22;10781;50.928;4.440;2023-01-09T05:57:21;8.10;99.90
21246;DHT22;10781;50.928;4.440;2023-01-09T05:59:47;8.00;99.90
21246;DHT22;10781;50.928;4.440;2023-01-09T06:02:12;8.10;99.90
21246;DHT22;10781;50.928;4.440;2023-01-09T06:04:38;8.20;99.90
21246;DHT22;10781;50.928;4.440;2023-01-09T06:07:04;8.00;99.90
21246;DHT22;10781;50.928;4.440;2023-01-09T06:09:29;8.10;99.90
21246;DHT22;10781;50.928;4.440;2023-01-09T06:11:56;8.00;99.90
21246;DHT22;10781;50.928;4.440;2023-01-09T06:14:22;7.90;99.90
21246;DHT22;10781;50.928;4.440;2023-01-09T06:16:48;7.90;99.90
21246;DHT22;10781;50.928;4.440;2023-01-09T06:19:13;7.90;99.90
21246;DHT22;10781;50.928;4.440;2023-01-09T06:21:39;7.90;99.90
21246;DHT22;10781;50.928;4.440;2023-01-09T06:24:05;7.90;99.90
21246;DHT22;10781;50.928;4.440;2023-01-09T06:26:31;7.90;99.90
21246;DHT22;10781;50.928;4.440;2023-01-09T06:28:57;7.90;99.90
21246;DHT22;10781;50.928;4.440;2023-01-09T06:31:23;7.90;99.90
21246;DHT22;10781;50.928;4.440;2023-01-09T06:33:49;7.90;99.90
21246;DHT22;10781;50.928;4.440;2023-01-09T06:36:15;7.80;99.90
21246;DHT22;10781;50.928;4.440;2023-01-09T06:38:41;7.80;99.90
21246;DHT22;10781;50.928;4.440;2023-01-09T06:41:07;7.80;99.90
21246;DHT22;10781;50.928;4.440;2023-01-09T06:43:32;7.70;99.90
21246;DHT22;10781;50.928;4.440;2023-01-09T06:45:58;7.70;99.90
21246;DHT22;10781;50.928;4.440;2023-01-09T06:48:24;7.80;99.90
21246;DHT22;10781;50.928;4.440;2023-01-09T06:50:50;7.70;99.90
21246;DHT22;10781;50.928;4.440;2023-01-09T06:53:16;7.70;99.90
21246;DHT22;10781;50.928;4.440;2023-01-09T06:55:43;7.70;99.90
21246;DHT22;10781;50.928;4.440;2023-01-09T06:58:09;7.80;99.90
21246;DHT22;10781;50.928;4.440;2023-01-09T07:00:35;7.90;99.90
21246;DHT22;10781;50.928;4.440;2023-01-09T07:03:01;7.90;99.90
21246;DHT22;10781;50.928;4.440;2023-01-09T07:05:26;7.90;99.90
21246;DHT22;10781;50.928;4.440;2023-01-09T07:07:52;7.90;99.90
21246;DHT22;10781;50.928;4.440;2023-01-09T07:10:18;7.90;99.90
21246;DHT22;10781;50.928;4.440;2023-01-09T07:12:43;7.90;99.90
21246;DHT22;10781;50.928;4.440;2023-01-09T07:15:09;7.90;99.90
21246;DHT22;10781;50.928;4.440;2023-01-09T07:17:35;7.90;99.90
21246;DHT22;10781;50.928;4.440;2023-01-09T07:20:01;8.00;99.90
21246;DHT22;10781;50.928;4.440;2023-01-09T07:22:27;8.00;99.90
21246;DHT22;10781;50.928;4.440;2023-01-09T07:24:52;8.00;99.90
21246;DHT22;10781;50.928;4.440;2023-01-09T07:27:18;8.00;99.90
21246;DHT22;10781;50.928;4.440;2023-01-09T07:29:43;8.10;99.90
21246;DHT22;10781;50.928;4.440;2023-01-09T07:32:09;8.20;99.90
21246;DHT22;10781;50.928;4.440;2023-01-09T07:34:35;8.10;99.90
21246;DHT22;10781;50.928;4.440;2023-01-09T07:37:00;8.10;99.90
21246;DHT22;10781;50.928;4.440;2023-01-09T07:39:26;8.20;99.90
21246;DHT22;10781;50.928;4.440;2023-01-09T07:41:52;8.20;99.90
21246;DHT22;10781;50.928;4.440;2023-01-09T07:44:18;8.30;99.90
21246;DHT22;10781;50.928;4.440;2023-01-09T07:46:44;8.20;99.90
21246;DHT22;10781;50.928;4.440;2023-01-09T07:49:09;8.30;99.90
21246;DHT22;10781;50.928;4.440;2023-01-09T07:51:35;8.30;99.90
21246;DHT22;10781;50.928;4.440;2023-01-09T07:54:03;8.30;99.90
21246;DHT22;10781;50.928;4.440;2023-01-09T07:56:29;8.30;99.90
21246;DHT22;10781;50.928;4.440;2023-01-09T07:58:54;8.20;99.90
21246;DHT22;10781;50.928;4.440;2023-01-09T08:01:20;8.30;99.90
21246;DHT22;10781;50.928;4.440;2023-01-09T08:03:46;8.30;99.90
21246;DHT22;10781;50.928;4.440;2023-01-09T08:06:11;8.20;99.90
21246;DHT22;10781;50.928;4.440;2023-01-09T08:08:37;8.30;99.90
21246;DHT22;10781;50.928;4.440;2023-01-09T08:11:02;8.40;99.90
21246;DHT22;10781;50.928;4.440;2023-01-09T08:13:29;8.30;99.90
21246;DHT22;10781;50.928;4.440;2023-01-09T08:15:54;8.20;99.90
21246;DHT22;10781;50.928;4.440;2023-01-09T08:18:20;8.20;99.90
21246;DHT22;10781;50.928;4.440;2023-01-09T08:20:48;8.20;99.90
21246;DHT22;10781;50.928;4.440;2023-01-09T08:23:13;8.30;99.90
21246;DHT22;10781;50.928;4.440;2023-01-09T08:25:39;8.30;99.90
21246;DHT22;10781;50.928;4.440;2023-01-09T08:28:04;8.30;99.90
21246;DHT22;10781;50.928;4.440;2023-01-09T08:30:30;8.40;99.90
21246;DHT22;10781;50.928;4.440;2023-01-09T08:32:56;8.40;99.90
21246;DHT22;10781;50.928;4.440;2023-01-09T08:35:21;8.60;99.90
21246;DHT22;10781;50.928;4.440;2023-01-09T08:37:48;8.60;99.90
21246;DHT22;10781;50.928;4.440;2023-01-09T08:40:15;8.60;99.90
21246;DHT22;10781;50.928;4.440;2023-01-09T08:42:41;8.50;99.90
21246;DHT22;10781;50.928;4.440;2023-01-09T08:45:25;8.40;99.90
21246;DHT22;10781;50.928;4.440;2023-01-09T08:48:10;8.50;99.90
21246;DHT22;10781;50.928;4.440;2023-01-09T08:50:36;8.40;99.90
21246;DHT22;10781;50.928;4.440;2023-01-09T08:53:02;8.50;99.90
21246;DHT22;10781;50.928;4.440;2023-01-09T08:55:27;8.40;99.90
21246;DHT22;10781;50.928;4.440;2023-01-09T08:57:54;8.40;99.90
21246;DHT22;10781;50.928;4.440;2023-01-09T09:00:22;8.40;99.90
21246;DHT22;10781;50.928;4.440;2023-01-09T09:02:57;8.50;99.90
21246;DHT22;10781;50.928;4.440;2023-01-09T09:05:25;8.40;99.90
21246;DHT22;10781;50.928;4.440;2023-01-09T09:07:51;8.40;99.90
21246;DHT22;10781;50.928;4.440;2023-01-09T09:10:22;8.50;99.90
21246;DHT22;10781;50.928;4.440;2023-01-09T09:12:49;8.60;99.90
21246;DHT22;10781;50.928;4.440;2023-01-09T09:15:16;8.50;99.90
21246;DHT22;10781;50.928;4.440;2023-01-09T09:17:58;8.50;99.90
21246;DHT22;10781;50.928;4.440;2023-01-09T09:20:35;8.50;99.90
21246;DHT22;10781;50.928;4.440;2023-01-09T09:23:02;8.50;99.90
21246;DHT22;10781;50.928;4.440;2023-01-09T09:25:28;8.40;99.90
21246;DHT22;10781;50.928;4.440;2023-01-09T09:27:53;8.30;99.90
21246;DHT22;10781;50.928;4.440;2023-01-09T09:30:23;8.20;99.90
21246;DHT22;10781;50.928;4.440;2023-01-09T09:32:48;8.30;99.90
21246;DHT22;10781;50.928;4.440;2023-01-09T09:35:15;8.40;99.90
21246;DHT22;10781;50.928;4.440;2023-01-09T09:37:42;8.50;99.90
21246;DHT22;10781;50.928;4.440;2023-01-09T09:40:18;8.40;99.90
21246;DHT22;10781;50.928;4.440;2023-01-09T09:43:00;8.50;99.90
21246;DHT22;10781;50.928;4.440;2023-01-09T09:46:02;8.60;99.90
21246;DHT22;10781;50.928;4.440;2023-01-09T09:48:32;8.70;99.90
21246;DHT22;10781;50.928;4.440;2023-01-09T09:51:09;8.90;99.90
21246;DHT22;10781;50.928;4.440;2023-01-09T09:56:10;8.60;99.90
21246;DHT22;10781;50.928;4.440;2023-01-09T09:58:39;8.70;99.90
21246;DHT22;10781;50.928;4.440;2023-01-09T10:01:06;8.70;99.90
21246;DHT22;10781;50.928;4.440;2023-01-09T10:03:45;8.60;99.90
21246;DHT22;10781;50.928;4.440;2023-01-09T10:12:26;8.80;99.90
21246;DHT22;10781;50.928;4.440;2023-01-09T10:14:56;8.70;99.90
21246;DHT22;10781;50.928;4.440;2023-01-09T10:25:56;8.70;99.90
21246;DHT22;10781;50.928;4.440;2023-01-09T10:28:54;8.70;99.90
21246;DHT22;10781;50.928;4.440;2023-01-09T10:34:23;8.80;99.90
21246;DHT22;10781;50.928;4.440;2023-01-09T10:39:36;8.70;99.90
21246;DHT22;10781;50.928;4.440;2023-01-09T10:42:17;8.70;99.90
21246;DHT22;10781;50.928;4.440;2023-01-09T10:44:57;8.80;99.90
21246;DHT22;10781;50.928;4.440;2023-01-09T10:47:34;8.70;99.90
21246;DHT22;10781;50.928;4.440;2023-01-09T10:50:15;8.70;99.90
21246;DHT22;10781;50.928;4.440;2023-01-09T10:52:42;8.70;99.90
21246;DHT22;10781;50.928;4.440;2023-01-09T10:57:44;8.60;99.90
21246;DHT22;10781;50.928;4.440;2023-01-09T11:00:16;8.80;99.90
21246;DHT22;10781;50.928;4.440;2023-01-09T11:02:42;8.80;99.90
21246;DHT22;10781;50.928;4.440;2023-01-09T11:05:12;8.90;99.90
21246;DHT22;10781;50.928;4.440;2023-01-09T11:07:41;8.90;99.90
21246;DHT22;10781;50.928;4.440;2023-01-09T11:10:11;8.90;99.90
21246;DHT22;10781;50.928;4.440;2023-01-09T11:12:38;9.10;99.90
21246;DHT22;10781;50.928;4.440;2023-01-09T11:17:46;9.00;99.90
21246;DHT22;10781;50.928;4.440;2023-01-09T11:20:27;9.00;99.90
21246;DHT22;10781;50.928;4.440;2023-01-09T11:22:55;9.10;99.90
21246;DHT22;10781;50.928;4.440;2023-01-09T11:25:25;9.20;99.90
21246;DHT22;10781;50.928;4.440;2023-01-09T11:30:26;9.20;99.90
21246;DHT22;10781;50.928;4.440;2023-01-09T11:32:56;9.30;99.90
21246;DHT22;10781;50.928;4.440;2023-01-09T11:38:13;9.40;99.90
21246;DHT22;10781;50.928;4.440;2023-01-09T11:40:45;9.60;99.90
21246;DHT22;10781;50.928;4.440;2023-01-09T11:45:52;9.50;99.90
21246;DHT22;10781;50.928;4.440;2023-01-09T11:48:33;9.50;99.90
21246;DHT22;10781;50.928;4.440;2023-01-09T11:51:00;9.50;99.90
21246;DHT22;10781;50.928;4.440;2023-01-09T11:53:27;9.50;99.90
21246;DHT22;10781;50.928;4.440;2023-01-09T11:56:00;9.30;99.90
21246;DHT22;10781;50.928;4.440;2023-01-09T11:58:30;9.30;99.90
21246;DHT22;10781;50.928;4.440;2023-01-09T12:00:59;9.30;99.90
21246;DHT22;10781;50.928;4.440;2023-01-09T12:03:36;9.40;99.90
21246;DHT22;10781;50.928;4.440;2023-01-09T12:09:07;9.50;99.90
21246;DHT22;10781;50.928;4.440;2023-01-09T12:25:29;9.70;99.90
21246;DHT22;10781;50.928;4.440;2023-01-09T12:33:57;9.70;99.90
21246;DHT22;10781;50.928;4.440;2023-01-09T12:44:52;9.80;99.90
21246;DHT22;10781;50.928;4.440;2023-01-09T12:47:30;9.80;99.90
21246;DHT22;10781;50.928;4.440;2023-01-09T12:55:37;10.00;99.90
21246;DHT22;10781;50.928;4.440;2023-01-09T13:01:02;10.10;99.90
21246;DHT22;10781;50.928;4.440;2023-01-09T13:03:37;10.20;99.90
21246;DHT22;10781;50.928;4.440;2023-01-09T13:06:06;10.10;99.90
21246;DHT22;10781;50.928;4.440;2023-01-09T13:08:39;10.10;99.90
21246;DHT22;10781;50.928;4.440;2023-01-09T13:11:27;10.20;99.90
21246;DHT22;10781;50.928;4.440;2023-01-09T13:14:01;10.10;99.90
21246;DHT22;10781;50.928;4.440;2023-01-09T13:16:43;10.10;99.90
21246;DHT22;10781;50.928;4.440;2023-01-09T13:21:40;10.10;99.90
21246;DHT22;10781;50.928;4.440;2023-01-09T13:27:17;10.30;99.90
21246;DHT22;10781;50.928;4.440;2023-01-09T13:29:47;10.40;99.90
21246;DHT22;10781;50.928;4.440;2023-01-09T13:32:48;10.20;99.90
21246;DHT22;10781;50.928;4.440;2023-01-09T13:35:18;10.40;99.90
21246;DHT22;10781;50.928;4.440;2023-01-09T13:37:49;10.50;99.90
21246;DHT22;10781;50.928;4.440;2023-01-09T13:43:02;10.60;99.90
21246;DHT22;10781;50.928;4.440;2023-01-09T13:45:31;10.70;99.90
21246;DHT22;10781;50.928;4.440;2023-01-09T13:50:40;10.70;99.90
21246;DHT22;10781;50.928;4.440;2023-01-09T13:58:29;10.70;99.90
21246;DHT22;10781;50.928;4.440;2023-01-09T14:06:38;10.40;99.90
21246;DHT22;10781;50.928;4.440;2023-01-09T14:09:11;10.40;99.90
21246;DHT22;10781;50.928;4.440;2023-01-09T14:11:39;10.30;99.90
21246;DHT22;10781;50.928;4.440;2023-01-09T14:14:16;10.20;99.90
21246;DHT22;10781;50.928;4.440;2023-01-09T14:16:44;10.20;99.90
21246;DHT22;10781;50.928;4.440;2023-01-09T14:22:32;10.10;99.90
21246;DHT22;10781;50.928;4.440;2023-01-09T14:25:08;9.90;99.90
21246;DHT22;10781;50.928;4.440;2023-01-09T14:30:33;10.30;99.90
21246;DHT22;10781;50.928;4.440;2023-01-09T14:38:39;10.00;99.90
21246;DHT22;10781;50.928;4.440;2023-01-09T14:44:28;9.60;99.90
21246;DHT22;10781;50.928;4.440;2023-01-09T14:50:02;9.40;99.90
21246;DHT22;10781;50.928;4.440;2023-01-09T14:52:49;9.20;99.90
21246;DHT22;10781;50.928;4.440;2023-01-09T14:58:11;9.10;99.90
21246;DHT22;10781;50.928;4.440;2023-01-09T15:01:01;9.20;99.90
21246;DHT22;10781;50.928;4.440;2023-01-09T15:03:49;9.20;99.90
21246;DHT22;10781;50.928;4.440;2023-01-09T15:06:24;9.00;99.90
21246;DHT22;10781;50.928;4.440;2023-01-09T15:09:06;9.10;99.90
21246;DHT22;10781;50.928;4.440;2023-01-09T15:11:33;9.10;99.90
21246;DHT22;10781;50.928;4.440;2023-01-09T15:14:01;9.00;99.90
21246;DHT22;10781;50.928;4.440;2023-01-09T15:16:28;9.00;99.90
21246;DHT22;10781;50.928;4.440;2023-01-09T15:19:06;8.90;99.90
21246;DHT22;10781;50.928;4.440;2023-01-09T15:21:32;8.80;99.90
21246;DHT22;10781;50.928;4.440;2023-01-09T15:24:20;8.70;99.90
21246;DHT22;10781;50.928;4.440;2023-01-09T15:27:08;8.70;99.90
21246;DHT22;10781;50.928;4.440;2023-01-09T15:29:34;8.70;99.90
21246;DHT22;10781;50.928;4.440;2023-01-09T15:32:14;8.70;99.90
21246;DHT22;10781;50.928;4.440;2023-01-09T15:34:43;8.80;99.90
21246;DHT22;10781;50.928;4.440;2023-01-09T15:39:50;8.70;99.90
21246;DHT22;10781;50.928;4.440;2023-01-09T15:42:24;8.90;99.90
21246;DHT22;10781;50.928;4.440;2023-01-09T15:47:53;8.80;99.90
21246;DHT22;10781;50.928;4.440;2023-01-09T15:50:27;8.90;99.90
21246;DHT22;10781;50.928;4.440;2023-01-09T15:52:54;8.90;99.90
21246;DHT22;10781;50.928;4.440;2023-01-09T15:55:30;8.80;99.90
21246;DHT22;10781;50.928;4.440;2023-01-09T15:58:05;8.60;99.90
21246;DHT22;10781;50.928;4.440;2023-01-09T16:00:55;8.50;99.90
21246;DHT22;10781;50.928;4.440;2023-01-09T16:03:24;8.50;99.90
21246;DHT22;10781;50.928;4.440;2023-01-09T16:06:27;8.40;99.90
21246;DHT22;10781;50.928;4.440;2023-01-09T16:08:57;8.40;99.90
21246;DHT22;10781;50.928;4.440;2023-01-09T16:11:33;8.40;99.90
21246;DHT22;10781;50.928;4.440;2023-01-09T16:14:23;8.40;99.90
21246;DHT22;10781;50.928;4.440;2023-01-09T16:16:50;8.40;99.90
21246;DHT22;10781;50.928;4.440;2023-01-09T16:19:58;8.30;99.90
21246;DHT22;10781;50.928;4.440;2023-01-09T16:22:54;8.40;99.90
21246;DHT22;10781;50.928;4.440;2023-01-09T16:25:38;8.30;99.90
21246;DHT22;10781;50.928;4.440;2023-01-09T16:28:19;8.10;99.90
21246;DHT22;10781;50.928;4.440;2023-01-09T16:31:04;8.10;99.90
21246;DHT22;10781;50.928;4.440;2023-01-09T16:33:34;8.00;99.90
21246;DHT22;10781;50.928;4.440;2023-01-09T16:36:00;7.80;99.90
21246;DHT22;10781;50.928;4.440;2023-01-09T16:38:27;7.80;99.90
21246;DHT22;10781;50.928;4.440;2023-01-09T16:41:07;7.90;99.90
21246;DHT22;10781;50.928;4.440;2023-01-09T16:43:56;7.90;99.90
21246;DHT22;10781;50.928;4.440;2023-01-09T16:46:21;7.90;99.90
21246;DHT22;10781;50.928;4.440;2023-01-09T16:48:48;7.90;99.90
21246;DHT22;10781;50.928;4.440;2023-01-09T16:51:20;7.80;99.90
21246;DHT22;10781;50.928;4.440;2023-01-09T16:53:47;7.70;99.90
21246;DHT22;10781;50.928;4.440;2023-01-09T16:56:20;7.70;99.90
21246;DHT22;10781;50.928;4.440;2023-01-09T16:58:49;7.80;99.90
21246;DHT22;10781;50.928;4.440;2023-01-09T17:01:17;7.80;99.90
21246;DHT22;10781;50.928;4.440;2023-01-09T17:03:43;7.80;99.90
21246;DHT22;10781;50.928;4.440;2023-01-09T17:06:25;7.70;99.90
21246;DHT22;10781;50.928;4.440;2023-01-09T17:08:51;7.80;99.90
21246;DHT22;10781;50.928;4.440;2023-01-09T17:11:26;7.80;99.90
21246;DHT22;10781;50.928;4.440;2023-01-09T17:13:56;7.80;99.90
21246;DHT22;10781;50.928;4.440;2023-01-09T17:16:22;7.80;99.90
21246;DHT22;10781;50.928;4.440;2023-01-09T17:18:48;7.90;99.90
21246;DHT22;10781;50.928;4.440;2023-01-09T17:21:20;8.00;99.90
21246;DHT22;10781;50.928;4.440;2023-01-09T17:23:46;8.00;99.90
21246;DHT22;10781;50.928;4.440;2023-01-09T17:26:18;8.10;99.90
21246;DHT22;10781;50.928;4.440;2023-01-09T17:29:04;8.20;99.90
21246;DHT22;10781;50.928;4.440;2023-01-09T17:31:30;8.40;99.90
21246;DHT22;10781;50.928;4.440;2023-01-09T17:33:56;8.50;99.90
21246;DHT22;10781;50.928;4.440;2023-01-09T17:36:30;8.50;99.90
21246;DHT22;10781;50.928;4.440;2023-01-09T17:38:57;8.50;99.90
21246;DHT22;10781;50.928;4.440;2023-01-09T17:41:24;8.50;99.90
21246;DHT22;10781;50.928;4.440;2023-01-09T17:43:51;8.40;99.90
21246;DHT22;10781;50.928;4.440;2023-01-09T17:46:25;8.10;99.90
21246;DHT22;10781;50.928;4.440;2023-01-09T17:48:55;7.80;99.90
21246;DHT22;10781;50.928;4.440;2023-01-09T17:51:21;7.70;99.90
21246;DHT22;10781;50.928;4.440;2023-01-09T17:53:47;7.60;99.90
21246;DHT22;10781;50.928;4.440;2023-01-09T17:56:19;7.60;99.90
21246;DHT22;10781;50.928;4.440;2023-01-09T17:58:48;7.80;99.90
21246;DHT22;10781;50.928;4.440;2023-01-09T18:01:15;7.70;99.90
21246;DHT22;10781;50.928;4.440;2023-01-09T18:03:42;7.70;99.90
21246;DHT22;10781;50.928;4.440;2023-01-09T18:06:10;7.70;99.90
21246;DHT22;10781;50.928;4.440;2023-01-09T18:08:36;7.70;99.90
21246;DHT22;10781;50.928;4.440;2023-01-09T18:11:03;7.70;99.90
21246;DHT22;10781;50.928;4.440;2023-01-09T18:13:29;7.70;99.90
21246;DHT22;10781;50.928;4.440;2023-01-09T18:15:55;7.70;99.90
21246;DHT22;10781;50.928;4.440;2023-01-09T18:18:21;7.60;99.90
21246;DHT22;10781;50.928;4.440;2023-01-09T18:20:47;7.70;99.90
21246;DHT22;10781;50.928;4.440;2023-01-09T18:23:14;7.70;99.90
21246;DHT22;10781;50.928;4.440;2023-01-09T18:25:41;7.80;99.90
21246;DHT22;10781;50.928;4.440;2023-01-09T18:28:09;7.80;99.90
21246;DHT22;10781;50.928;4.440;2023-01-09T18:30:35;7.80;99.90
21246;DHT22;10781;50.928;4.440;2023-01-09T18:33:01;7.60;99.90
21246;DHT22;10781;50.928;4.440;2023-01-09T18:35:27;7.60;99.90
21246;DHT22;10781;50.928;4.440;2023-01-09T18:37:53;7.50;99.90
21246;DHT22;10781;50.928;4.440;2023-01-09T18:40:18;7.50;99.90